sensor_id;sensor_type;location;lat;lon;timestamp;temperature;humidity
64858;SHT30;51335;51.148;6.950;2023-07-13T00:00:06;15.51;75.81
64858;SHT30;51335;51.148;6.950;2023-07-13T00:00:36;15.52;75.87
64858;SHT30;51335;51.148;6.950;2023-07-13T00:01:07;15.52;76.01
64858;SHT30;51335;51.148;6.950;2023-07-13T00:01:37;15.49;76.03
64858;SHT30;51335;51.148;6.950;2023-07-13T00:02:08;15.48;76.07
64858;SHT30;51335;51.148;6.950;2023-07-13T00:02:38;15.46;76.05
64858;SHT30;51335;51.148;6.950;2023-07-13T00:03:09;15.46;76.06
64858;SHT30;51335;51.148;6.950;2023-07-13T00:03:39;15.49;76.10
64858;SHT30;51335;51.148;6.950;2023-07-13T00:04:09;15.49;76.16
64858;SHT30;51335;51.148;6.950;2023-07-13T00:04:39;15.46;76.17
64858;SHT30;51335;51.148;6.950;2023-07-13T00:05:10;15.46;76.20
64858;SHT30;51335;51.148;6.950;2023-07-13T00:05:40;15.45;76.22
64858;SHT30;51335;51.148;6.950;2023-07-13T00:06:10;15.42;76.22
64858;SHT30;51335;51.148;6.950;2023-07-13T00:06:41;15.45;76.23
64858;SHT30;51335;51.148;6.950;2023-07-13T00:07:11;15.42;76.23
64858;SHT30;51335;51.148;6.950;2023-07-13T00:07:41;15.43;76.30
64858;SHT30;51335;51.148;6.950;2023-07-13T00:08:12;15.42;76.32
64858;SHT30;51335;51.148;6.950;2023-07-13T00:08:42;15.41;76.40
64858;SHT30;51335;51.148;6.950;2023-07-13T00:09:13;15.41;76.46
64858;SHT30;51335;51.148;6.950;2023-07-13T00:09:44;15.38;76.68
64858;SHT30;51335;51.148;6.950;2023-07-13T00:10:14;15.39;77.00
64858;SHT30;51335;51.148;6.950;2023-07-13T00:10:45;15.38;77.17
64858;SHT30;51335;51.148;6.950;2023-07-13T00:11:16;15.34;77.32
64858;SHT30;51335;51.148;6.950;2023-07-13T00:11:51;15.32;77.41
64858;SHT30;51335;51.148;6.950;2023-07-13T00:12:27;15.31;77.46
64858;SHT30;51335;51.148;6.950;2023-07-13T00:12:57;15.32;77.57
64858;SHT30;51335;51.148;6.950;2023-07-13T00:13:29;15.28;77.69
64858;SHT30;51335;51.148;6.950;2023-07-13T00:13:59;15.24;77.82
64858;SHT30;51335;51.148;6.950;2023-07-13T00:14:30;15.24;77.86
64858;SHT30;51335;51.148;6.950;2023-07-13T00:15:04;15.22;78.04
64858;SHT30;51335;51.148;6.950;2023-07-13T00:15:34;15.20;78.19
64858;SHT30;51335;51.148;6.950;2023-07-13T00:16:05;15.21;78.42
64858;SHT30;51335;51.148;6.950;2023-07-13T00:16:37;15.18;78.64
64858;SHT30;51335;51.148;6.950;2023-07-13T00:17:08;15.17;78.73
64858;SHT30;51335;51.148;6.950;2023-07-13T00:17:39;15.11;78.85
64858;SHT30;51335;51.148;6.950;2023-07-13T00:18:10;15.14;78.91
64858;SHT30;51335;51.148;6.950;2023-07-13T00:18:40;15.11;78.96
64858;SHT30;51335;51.148;6.950;2023-07-13T00:19:12;15.08;78.96
64858;SHT30;51335;51.148;6.950;2023-07-13T00:19:42;15.05;79.01
64858;SHT30;51335;51.148;6.950;2023-07-13T00:20:12;15.05;79.03
64858;SHT30;51335;51.148;6.950;2023-07-13T00:20:43;15.03;79.12
64858;SHT30;51335;51.148;6.950;2023-07-13T00:21:13;15.01;79.22
64858;SHT30;51335;51.148;6.950;2023-07-13T00:21:43;15.03;79.29
64858;SHT30;51335;51.148;6.950;2023-07-13T00:22:14;15.03;79.35
64858;SHT30;51335;51.148;6.950;2023-07-13T00:22:44;15.03;79.31
64858;SHT30;51335;51.148;6.950;2023-07-13T00:23:14;15.01;79.37
64858;SHT30;51335;51.148;6.950;2023-07-13T00:23:44;15.00;79.42
64858;SHT30;51335;51.148;6.950;2023-07-13T00:24:17;14.98;79.55
64858;SHT30;51335;51.148;6.950;2023-07-13T00:24:47;14.95;79.53
64858;SHT30;51335;51.148;6.950;2023-07-13T00:25:18;14.97;79.55
64858;SHT30;51335;51.148;6.950;2023-07-13T00:25:48;14.95;79.60
64858;SHT30;51335;51.148;6.950;2023-07-13T00:26:18;14.94;79.77
64858;SHT30;51335;51.148;6.950;2023-07-13T00:26:48;14.90;79.77
64858;SHT30;51335;51.148;6.950;2023-07-13T00:27:19;14.93;79.87
64858;SHT30;51335;51.148;6.950;2023-07-13T00:27:49;14.90;79.91
64858;SHT30;51335;51.148;6.950;2023-07-13T00:28:19;14.88;80.01
64858;SHT30;51335;51.148;6.950;2023-07-13T00:28:50;14.88;80.09
64858;SHT30;51335;51.148;6.950;2023-07-13T00:29:20;14.87;80.17
64858;SHT30;51335;51.148;6.950;2023-07-13T00:29:50;14.83;80.22
64858;SHT30;51335;51.148;6.950;2023-07-13T00:30:21;14.84;80.23
64858;SHT30;51335;51.148;6.950;2023-07-13T00:30:51;14.81;80.30
64858;SHT30;51335;51.148;6.950;2023-07-13T00:31:21;14.84;80.32
64858;SHT30;51335;51.148;6.950;2023-07-13T00:31:52;14.83;80.41
64858;SHT30;51335;51.148;6.950;2023-07-13T00:32:22;14.77;80.46
64858;SHT30;51335;51.148;6.950;2023-07-13T00:32:52;14.80;80.61
64858;SHT30;51335;51.148;6.950;2023-07-13T00:33:23;14.76;80.67
64858;SHT30;51335;51.148;6.950;2023-07-13T00:33:53;14.76;80.64
64858;SHT30;51335;51.148;6.950;2023-07-13T00:34:23;14.77;80.67
64858;SHT30;51335;51.148;6.950;2023-07-13T00:34:53;14.77;80.59
64858;SHT30;51335;51.148;6.950;2023-07-13T00:35:25;14.76;80.55
64858;SHT30;51335;51.148;6.950;2023-07-13T00:35:56;14.74;80.72
64858;SHT30;51335;51.148;6.950;2023-07-13T00:36:26;14.76;80.69
64858;SHT30;51335;51.148;6.950;2023-07-13T00:36:56;14.73;80.77
64858;SHT30;51335;51.148;6.950;2023-07-13T00:37:27;14.70;80.79
64858;SHT30;51335;51.148;6.950;2023-07-13T00:37:57;14.72;80.93
64858;SHT30;51335;51.148;6.950;2023-07-13T00:38:27;14.69;80.97
64858;SHT30;51335;51.148;6.950;2023-07-13T00:38:58;14.69;81.21
64858;SHT30;51335;51.148;6.950;2023-07-13T00:39:28;14.67;81.43
64858;SHT30;51335;51.148;6.950;2023-07-13T00:39:58;14.66;81.35
64858;SHT30;51335;51.148;6.950;2023-07-13T00:40:28;14.62;81.36
64858;SHT30;51335;51.148;6.950;2023-07-13T00:40:59;14.63;81.41
64858;SHT30;51335;51.148;6.950;2023-07-13T00:41:30;14.60;81.39
64858;SHT30;51335;51.148;6.950;2023-07-13T00:42:01;14.62;81.43
64858;SHT30;51335;51.148;6.950;2023-07-13T00:42:32;14.66;81.40
64858;SHT30;51335;51.148;6.950;2023-07-13T00:43:04;14.66;81.41
64858;SHT30;51335;51.148;6.950;2023-07-13T00:43:34;14.60;81.42
64858;SHT30;51335;51.148;6.950;2023-07-13T00:44:05;14.62;81.44
64858;SHT30;51335;51.148;6.950;2023-07-13T00:44:35;14.59;81.36
64858;SHT30;51335;51.148;6.950;2023-07-13T00:50:33;14.46;81.81
64858;SHT30;51335;51.148;6.950;2023-07-13T00:51:03;14.42;82.32
64858;SHT30;51335;51.148;6.950;2023-07-13T00:51:41;14.39;82.07
64858;SHT30;51335;51.148;6.950;2023-07-13T00:52:12;14.37;82.01
64858;SHT30;51335;51.148;6.950;2023-07-13T00:52:46;14.36;81.98
64858;SHT30;51335;51.148;6.950;2023-07-13T00:53:18;14.37;82.07
64858;SHT30;51335;51.148;6.950;2023-07-13T00:53:50;14.32;82.20
64858;SHT30;51335;51.148;6.950;2023-07-13T00:54:32;14.33;82.14
64858;SHT30;51335;51.148;6.950;2023-07-13T00:55:04;14.29;82.03
64858;SHT30;51335;51.148;6.950;2023-07-13T00:55:35;14.28;82.08
64858;SHT30;51335;51.148;6.950;2023-07-13T00:56:05;14.28;82.05
64858;SHT30;51335;51.148;6.950;2023-07-13T00:56:37;14.29;82.09
64858;SHT30;51335;51.148;6.950;2023-07-13T00:57:12;14.26;82.35
64858;SHT30;51335;51.148;6.950;2023-07-13T00:57:44;14.24;82.26
64858;SHT30;51335;51.148;6.950;2023-07-13T00:58:15;14.24;82.29
64858;SHT30;51335;51.148;6.950;2023-07-13T00:58:45;14.22;82.34
64858;SHT30;51335;51.148;6.950;2023-07-13T00:59:17;14.21;82.49
64858;SHT30;51335;51.148;6.950;2023-07-13T00:59:52;14.24;82.61
64858;SHT30;51335;51.148;6.950;2023-07-13T01:00:22;14.24;82.73
64858;SHT30;51335;51.148;6.950;2023-07-13T01:00:53;14.22;82.82
64858;SHT30;51335;51.148;6.950;2023-07-13T01:01:23;14.22;82.91
64858;SHT30;51335;51.148;6.950;2023-07-13T01:01:54;14.21;82.90
64858;SHT30;51335;51.148;6.950;2023-07-13T01:02:25;14.21;82.90
64858;SHT30;51335;51.148;6.950;2023-07-13T01:02:56;14.24;82.85
64858;SHT30;51335;51.148;6.950;2023-07-13T01:03:27;14.21;83.08
64858;SHT30;51335;51.148;6.950;2023-07-13T01:03:57;14.19;82.92
64858;SHT30;51335;51.148;6.950;2023-07-13T01:04:27;14.22;82.92
64858;SHT30;51335;51.148;6.950;2023-07-13T01:04:58;14.21;82.88
64858;SHT30;51335;51.148;6.950;2023-07-13T01:05:28;14.21;82.82
64858;SHT30;51335;51.148;6.950;2023-07-13T01:05:59;14.24;82.70
64858;SHT30;51335;51.148;6.950;2023-07-13T01:06:29;14.22;82.70
64858;SHT30;51335;51.148;6.950;2023-07-13T01:06:59;14.24;82.66
64858;SHT30;51335;51.148;6.950;2023-07-13T01:07:30;14.22;82.69
64858;SHT30;51335;51.148;6.950;2023-07-13T01:08:01;14.16;82.74
64858;SHT30;51335;51.148;6.950;2023-07-13T01:08:32;14.19;82.82
64858;SHT30;51335;51.148;6.950;2023-07-13T01:09:03;14.22;82.82
64858;SHT30;51335;51.148;6.950;2023-07-13T01:09:34;14.18;82.86
64858;SHT30;51335;51.148;6.950;2023-07-13T01:10:04;14.19;82.87
64858;SHT30;51335;51.148;6.950;2023-07-13T01:10:35;14.16;82.89
64858;SHT30;51335;51.148;6.950;2023-07-13T01:11:05;14.16;82.93
64858;SHT30;51335;51.148;6.950;2023-07-13T01:11:36;14.19;83.01
64858;SHT30;51335;51.148;6.950;2023-07-13T01:12:07;14.18;83.05
64858;SHT30;51335;51.148;6.950;2023-07-13T01:12:37;14.15;83.01
64858;SHT30;51335;51.148;6.950;2023-07-13T01:13:10;14.14;83.15
64858;SHT30;51335;51.148;6.950;2023-07-13T01:13:40;14.11;83.17
64858;SHT30;51335;51.148;6.950;2023-07-13T01:14:10;14.11;83.29
64858;SHT30;51335;51.148;6.950;2023-07-13T01:14:41;14.09;83.49
64858;SHT30;51335;51.148;6.950;2023-07-13T01:16:24;14.01;83.68
64858;SHT30;51335;51.148;6.950;2023-07-13T01:16:55;13.98;83.78
64858;SHT30;51335;51.148;6.950;2023-07-13T01:17:26;13.97;83.80
64858;SHT30;51335;51.148;6.950;2023-07-13T01:17:56;13.94;83.84
64858;SHT30;51335;51.148;6.950;2023-07-13T01:18:28;13.94;83.88
64858;SHT30;51335;51.148;6.950;2023-07-13T01:18:59;13.94;83.91
64858;SHT30;51335;51.148;6.950;2023-07-13T01:19:41;13.91;84.05
64858;SHT30;51335;51.148;6.950;2023-07-13T01:20:11;13.89;84.26
64858;SHT30;51335;51.148;6.950;2023-07-13T01:20:53;13.88;84.40
64858;SHT30;51335;51.148;6.950;2023-07-13T01:21:25;13.85;84.34
64858;SHT30;51335;51.148;6.950;2023-07-13T01:21:55;13.82;84.32
64858;SHT30;51335;51.148;6.950;2023-07-13T01:22:26;13.81;84.38
64858;SHT30;51335;51.148;6.950;2023-07-13T01:22:56;13.81;84.45
64858;SHT30;51335;51.148;6.950;2023-07-13T01:23:28;13.78;84.49
64858;SHT30;51335;51.148;6.950;2023-07-13T01:23:58;13.77;84.62
64858;SHT30;51335;51.148;6.950;2023-07-13T01:24:29;13.75;84.66
64858;SHT30;51335;51.148;6.950;2023-07-13T01:24:59;13.73;84.66
64858;SHT30;51335;51.148;6.950;2023-07-13T01:25:29;13.78;84.65
64858;SHT30;51335;51.148;6.950;2023-07-13T01:26:00;13.78;84.53
64858;SHT30;51335;51.148;6.950;2023-07-13T01:26:30;13.78;84.60
64858;SHT30;51335;51.148;6.950;2023-07-13T01:27:00;13.78;84.72
64858;SHT30;51335;51.148;6.950;2023-07-13T01:27:31;13.78;84.78
64858;SHT30;51335;51.148;6.950;2023-07-13T01:28:02;13.77;84.90
64858;SHT30;51335;51.148;6.950;2023-07-13T01:28:33;13.74;84.99
64858;SHT30;51335;51.148;6.950;2023-07-13T01:29:03;13.75;84.97
64858;SHT30;51335;51.148;6.950;2023-07-13T01:29:36;13.75;85.16
64858;SHT30;51335;51.148;6.950;2023-07-13T01:30:07;13.74;85.18
64858;SHT30;51335;51.148;6.950;2023-07-13T01:30:38;13.74;85.08
64858;SHT30;51335;51.148;6.950;2023-07-13T01:31:10;13.75;85.00
64858;SHT30;51335;51.148;6.950;2023-07-13T01:31:40;13.73;84.95
64858;SHT30;51335;51.148;6.950;2023-07-13T01:32:15;13.71;84.88
64858;SHT30;51335;51.148;6.950;2023-07-13T01:32:46;13.71;84.90
64858;SHT30;51335;51.148;6.950;2023-07-13T01:33:17;13.70;84.85
64858;SHT30;51335;51.148;6.950;2023-07-13T01:33:47;13.68;84.83
64858;SHT30;51335;51.148;6.950;2023-07-13T01:34:17;13.68;84.81
64858;SHT30;51335;51.148;6.950;2023-07-13T01:34:48;13.70;84.81
64858;SHT30;51335;51.148;6.950;2023-07-13T01:35:19;13.67;84.83
64858;SHT30;51335;51.148;6.950;2023-07-13T01:35:49;13.66;84.82
64858;SHT30;51335;51.148;6.950;2023-07-13T01:36:19;13.66;84.74
64858;SHT30;51335;51.148;6.950;2023-07-13T01:36:50;13.64;84.92
64858;SHT30;51335;51.148;6.950;2023-07-13T01:37:20;13.67;85.04
64858;SHT30;51335;51.148;6.950;2023-07-13T01:37:51;13.67;85.02
64858;SHT30;51335;51.148;6.950;2023-07-13T01:38:22;13.66;85.09
64858;SHT30;51335;51.148;6.950;2023-07-13T01:38:52;13.61;85.15
64858;SHT30;51335;51.148;6.950;2023-07-13T01:39:23;13.64;85.20
64858;SHT30;51335;51.148;6.950;2023-07-13T01:39:53;13.63;85.20
64858;SHT30;51335;51.148;6.950;2023-07-13T01:40:23;13.63;85.60
64858;SHT30;51335;51.148;6.950;2023-07-13T01:40:54;13.60;85.49
64858;SHT30;51335;51.148;6.950;2023-07-13T01:41:24;13.61;85.50
64858;SHT30;51335;51.148;6.950;2023-07-13T01:41:54;13.60;85.54
64858;SHT30;51335;51.148;6.950;2023-07-13T01:42:24;13.61;85.58
64858;SHT30;51335;51.148;6.950;2023-07-13T01:42:55;13.64;85.68
64858;SHT30;51335;51.148;6.950;2023-07-13T01:43:26;13.66;85.57
64858;SHT30;51335;51.148;6.950;2023-07-13T01:43:56;13.64;85.50
64858;SHT30;51335;51.148;6.950;2023-07-13T01:44:26;13.63;85.49
64858;SHT30;51335;51.148;6.950;2023-07-13T01:44:57;13.67;85.49
64858;SHT30;51335;51.148;6.950;2023-07-13T01:45:27;13.71;85.49
64858;SHT30;51335;51.148;6.950;2023-07-13T01:45:57;13.70;85.45
64858;SHT30;51335;51.148;6.950;2023-07-13T01:46:27;13.74;85.49
64858;SHT30;51335;51.148;6.950;2023-07-13T01:46:58;13.71;85.36
64858;SHT30;51335;51.148;6.950;2023-07-13T01:47:28;13.75;85.25
64858;SHT30;51335;51.148;6.950;2023-07-13T01:47:58;13.77;85.19
64858;SHT30;51335;51.148;6.950;2023-07-13T01:48:29;13.74;85.26
64858;SHT30;51335;51.148;6.950;2023-07-13T01:48:59;13.81;85.06
64858;SHT30;51335;51.148;6.950;2023-07-13T01:49:29;13.85;85.02
64858;SHT30;51335;51.148;6.950;2023-07-13T01:49:59;13.82;85.00
64858;SHT30;51335;51.148;6.950;2023-07-13T01:50:30;13.84;84.95
64858;SHT30;51335;51.148;6.950;2023-07-13T01:51:00;13.88;84.83
64858;SHT30;51335;51.148;6.950;2023-07-13T01:51:30;13.87;84.74
64858;SHT30;51335;51.148;6.950;2023-07-13T01:52:00;13.89;84.69
64858;SHT30;51335;51.148;6.950;2023-07-13T01:52:31;13.88;84.68
64858;SHT30;51335;51.148;6.950;2023-07-13T01:53:02;13.97;84.42
64858;SHT30;51335;51.148;6.950;2023-07-13T01:53:32;13.97;84.32
64858;SHT30;51335;51.148;6.950;2023-07-13T01:54:02;13.97;84.26
64858;SHT30;51335;51.148;6.950;2023-07-13T01:54:33;13.95;84.20
64858;SHT30;51335;51.148;6.950;2023-07-13T01:55:03;13.98;84.25
64858;SHT30;51335;51.148;6.950;2023-07-13T01:55:34;14.01;84.18
64858;SHT30;51335;51.148;6.950;2023-07-13T01:56:05;14.01;84.17
64858;SHT30;51335;51.148;6.950;2023-07-13T01:56:35;14.04;84.09
64858;SHT30;51335;51.148;6.950;2023-07-13T01:57:05;14.04;83.98
64858;SHT30;51335;51.148;6.950;2023-07-13T01:57:36;14.05;83.91
64858;SHT30;51335;51.148;6.950;2023-07-13T01:58:06;14.05;83.97
64858;SHT30;51335;51.148;6.950;2023-07-13T01:58:36;14.05;83.86
64858;SHT30;51335;51.148;6.950;2023-07-13T01:59:07;14.05;83.84
64858;SHT30;51335;51.148;6.950;2023-07-13T01:59:37;14.08;83.81
64858;SHT30;51335;51.148;6.950;2023-07-13T02:00:09;14.11;83.90
64858;SHT30;51335;51.148;6.950;2023-07-13T02:00:40;14.11;83.84
64858;SHT30;51335;51.148;6.950;2023-07-13T02:01:10;14.11;83.83
64858;SHT30;51335;51.148;6.950;2023-07-13T02:01:41;14.14;83.88
64858;SHT30;51335;51.148;6.950;2023-07-13T02:02:11;14.15;83.70
64858;SHT30;51335;51.148;6.950;2023-07-13T02:02:41;14.18;83.65
64858;SHT30;51335;51.148;6.950;2023-07-13T02:03:12;14.22;83.49
64858;SHT30;51335;51.148;6.950;2023-07-13T02:03:42;14.22;83.34
64858;SHT30;51335;51.148;6.950;2023-07-13T02:04:12;14.19;83.22
64858;SHT30;51335;51.148;6.950;2023-07-13T02:04:42;14.22;83.17
64858;SHT30;51335;51.148;6.950;2023-07-13T02:05:13;14.24;83.04
64858;SHT30;51335;51.148;6.950;2023-07-13T02:05:44;14.24;83.08
64858;SHT30;51335;51.148;6.950;2023-07-13T02:06:14;14.26;83.02
64858;SHT30;51335;51.148;6.950;2023-07-13T02:06:44;14.25;83.01
64858;SHT30;51335;51.148;6.950;2023-07-13T02:07:15;14.24;83.06
64858;SHT30;51335;51.148;6.950;2023-07-13T02:07:45;14.26;83.00
64858;SHT30;51335;51.148;6.950;2023-07-13T02:08:15;14.24;83.11
64858;SHT30;51335;51.148;6.950;2023-07-13T02:08:46;14.28;83.07
64858;SHT30;51335;51.148;6.950;2023-07-13T02:09:16;14.28;83.14
64858;SHT30;51335;51.148;6.950;2023-07-13T02:09:46;14.30;83.20
64858;SHT30;51335;51.148;6.950;2023-07-13T02:10:17;14.29;83.26
64858;SHT30;51335;51.148;6.950;2023-07-13T02:10:47;14.32;83.48
64858;SHT30;51335;51.148;6.950;2023-07-13T02:11:17;14.33;83.29
64858;SHT30;51335;51.148;6.950;2023-07-13T02:11:48;14.36;83.23
64858;SHT30;51335;51.148;6.950;2023-07-13T02:12:18;14.36;83.21
64858;SHT30;51335;51.148;6.950;2023-07-13T02:12:48;14.37;83.19
64858;SHT30;51335;51.148;6.950;2023-07-13T02:13:19;14.36;83.13
64858;SHT30;51335;51.148;6.950;2023-07-13T02:13:49;14.36;83.06
64858;SHT30;51335;51.148;6.950;2023-07-13T02:14:19;14.35;83.35
64858;SHT30;51335;51.148;6.950;2023-07-13T02:14:50;14.35;83.16
64858;SHT30;51335;51.148;6.950;2023-07-13T02:15:20;14.37;83.10
64858;SHT30;51335;51.148;6.950;2023-07-13T02:15:51;14.35;83.16
64858;SHT30;51335;51.148;6.950;2023-07-13T02:16:22;14.33;83.16
64858;SHT30;51335;51.148;6.950;2023-07-13T02:16:52;14.35;83.18
64858;SHT30;51335;51.148;6.950;2023-07-13T02:17:22;14.33;83.06
64858;SHT30;51335;51.148;6.950;2023-07-13T02:17:53;14.32;83.09
64858;SHT30;51335;51.148;6.950;2023-07-13T02:18:23;14.33;83.14
64858;SHT30;51335;51.148;6.950;2023-07-13T02:18:53;14.30;83.25
64858;SHT30;51335;51.148;6.950;2023-07-13T02:19:23;14.29;83.32
64858;SHT30;51335;51.148;6.950;2023-07-13T02:19:54;14.29;83.40
64858;SHT30;51335;51.148;6.950;2023-07-13T02:20:25;14.25;83.55
64858;SHT30;51335;51.148;6.950;2023-07-13T02:20:55;14.24;83.74
64858;SHT30;51335;51.148;6.950;2023-07-13T02:21:25;14.21;83.83
64858;SHT30;51335;51.148;6.950;2023-07-13T02:21:56;14.18;83.79
64858;SHT30;51335;51.148;6.950;2023-07-13T02:22:26;14.16;84.13
64858;SHT30;51335;51.148;6.950;2023-07-13T02:22:56;14.12;84.50
64858;SHT30;51335;51.148;6.950;2023-07-13T02:23:27;14.11;84.53
64858;SHT30;51335;51.148;6.950;2023-07-13T02:23:57;14.08;84.47
64858;SHT30;51335;51.148;6.950;2023-07-13T02:24:27;14.09;84.57
64858;SHT30;51335;51.148;6.950;2023-07-13T02:24:57;14.06;84.63
64858;SHT30;51335;51.148;6.950;2023-07-13T02:25:28;14.08;84.73
64858;SHT30;51335;51.148;6.950;2023-07-13T02:25:59;14.02;84.73
64858;SHT30;51335;51.148;6.950;2023-07-13T02:26:30;14.01;84.90
64858;SHT30;51335;51.148;6.950;2023-07-13T02:27:00;13.95;85.26
64858;SHT30;51335;51.148;6.950;2023-07-13T02:27:30;13.94;85.29
64858;SHT30;51335;51.148;6.950;2023-07-13T02:28:01;13.88;85.35
64858;SHT30;51335;51.148;6.950;2023-07-13T02:28:31;13.84;85.53
64858;SHT30;51335;51.148;6.950;2023-07-13T02:29:01;13.84;85.47
64858;SHT30;51335;51.148;6.950;2023-07-13T02:29:31;13.81;85.63
64858;SHT30;51335;51.148;6.950;2023-07-13T02:30:02;13.75;85.71
64858;SHT30;51335;51.148;6.950;2023-07-13T02:30:34;13.74;85.80
64858;SHT30;51335;51.148;6.950;2023-07-13T02:31:10;13.73;85.95
64858;SHT30;51335;51.148;6.950;2023-07-13T02:31:41;13.67;86.12
64858;SHT30;51335;51.148;6.950;2023-07-13T02:32:11;13.66;86.16
64858;SHT30;51335;51.148;6.950;2023-07-13T02:32:41;13.63;86.17
64858;SHT30;51335;51.148;6.950;2023-07-13T02:33:12;13.66;86.18
64858;SHT30;51335;51.148;6.950;2023-07-13T02:33:42;13.66;86.09
64858;SHT30;51335;51.148;6.950;2023-07-13T02:34:13;13.61;86.16
64858;SHT30;51335;51.148;6.950;2023-07-13T02:34:43;13.60;86.52
64858;SHT30;51335;51.148;6.950;2023-07-13T02:35:13;13.57;86.37
64858;SHT30;51335;51.148;6.950;2023-07-13T02:35:43;13.56;86.36
64858;SHT30;51335;51.148;6.950;2023-07-13T02:36:14;13.56;86.43
64858;SHT30;51335;51.148;6.950;2023-07-13T02:36:44;13.61;86.61
64858;SHT30;51335;51.148;6.950;2023-07-13T02:37:15;13.60;86.58
64858;SHT30;51335;51.148;6.950;2023-07-13T02:37:45;13.58;86.71
64858;SHT30;51335;51.148;6.950;2023-07-13T02:38:15;13.57;86.78
64858;SHT30;51335;51.148;6.950;2023-07-13T02:38:45;13.56;86.76
64858;SHT30;51335;51.148;6.950;2023-07-13T02:39:16;13.56;86.78
64858;SHT30;51335;51.148;6.950;2023-07-13T02:39:46;13.57;86.94
64858;SHT30;51335;51.148;6.950;2023-07-13T02:40:16;13.56;87.09
64858;SHT30;51335;51.148;6.950;2023-07-13T02:40:47;13.51;87.05
64858;SHT30;51335;51.148;6.950;2023-07-13T02:41:17;13.50;87.01
64858;SHT30;51335;51.148;6.950;2023-07-13T02:41:47;13.47;87.12
64858;SHT30;51335;51.148;6.950;2023-07-13T02:42:18;13.47;87.03
64858;SHT30;51335;51.148;6.950;2023-07-13T02:42:48;13.46;87.09
64858;SHT30;51335;51.148;6.950;2023-07-13T02:43:18;13.44;87.16
64858;SHT30;51335;51.148;6.950;2023-07-13T02:43:49;13.43;87.14
64858;SHT30;51335;51.148;6.950;2023-07-13T02:44:19;13.40;87.19
64858;SHT30;51335;51.148;6.950;2023-07-13T02:44:49;13.40;87.39
64858;SHT30;51335;51.148;6.950;2023-07-13T02:45:19;13.42;87.39
64858;SHT30;51335;51.148;6.950;2023-07-13T02:45:50;13.43;87.39
64858;SHT30;51335;51.148;6.950;2023-07-13T02:46:20;13.42;87.33
64858;SHT30;51335;51.148;6.950;2023-07-13T02:46:50;13.42;87.54
64858;SHT30;51335;51.148;6.950;2023-07-13T02:47:20;13.42;87.54
64858;SHT30;51335;51.148;6.950;2023-07-13T02:47:51;13.42;87.55
64858;SHT30;51335;51.148;6.950;2023-07-13T02:48:21;13.40;87.55
64858;SHT30;51335;51.148;6.950;2023-07-13T02:48:51;13.39;88.12
64858;SHT30;51335;51.148;6.950;2023-07-13T02:49:22;13.40;88.20
64858;SHT30;51335;51.148;6.950;2023-07-13T02:49:52;13.40;88.06
64858;SHT30;51335;51.148;6.950;2023-07-13T02:50:22;13.37;87.95
64858;SHT30;51335;51.148;6.950;2023-07-13T02:50:53;13.40;87.92
64858;SHT30;51335;51.148;6.950;2023-07-13T02:51:23;13.37;87.93
64858;SHT30;51335;51.148;6.950;2023-07-13T02:51:53;13.42;88.11
64858;SHT30;51335;51.148;6.950;2023-07-13T02:52:24;13.42;88.17
64858;SHT30;51335;51.148;6.950;2023-07-13T02:52:55;13.40;88.07
64858;SHT30;51335;51.148;6.950;2023-07-13T02:53:25;13.40;88.16
64858;SHT30;51335;51.148;6.950;2023-07-13T02:53:55;13.43;88.11
64858;SHT30;51335;51.148;6.950;2023-07-13T02:54:25;13.43;88.15
64858;SHT30;51335;51.148;6.950;2023-07-13T02:54:56;13.46;88.15
64858;SHT30;51335;51.148;6.950;2023-07-13T02:55:26;13.53;88.15
64858;SHT30;51335;51.148;6.950;2023-07-13T02:55:56;13.56;87.98
64858;SHT30;51335;51.148;6.950;2023-07-13T02:56:28;13.56;87.80
64858;SHT30;51335;51.148;6.950;2023-07-13T02:56:59;13.58;87.64
64858;SHT30;51335;51.148;6.950;2023-07-13T02:57:29;13.57;87.51
64858;SHT30;51335;51.148;6.950;2023-07-13T02:57:59;13.61;87.43
64858;SHT30;51335;51.148;6.950;2023-07-13T02:58:29;13.60;87.49
64858;SHT30;51335;51.148;6.950;2023-07-13T02:59:00;13.61;87.33
64858;SHT30;51335;51.148;6.950;2023-07-13T02:59:30;13.61;87.29
64858;SHT30;51335;51.148;6.950;2023-07-13T03:00:02;13.64;87.36
64858;SHT30;51335;51.148;6.950;2023-07-13T03:00:33;13.70;87.25
64858;SHT30;51335;51.148;6.950;2023-07-13T03:01:07;13.71;87.21
64858;SHT30;51335;51.148;6.950;2023-07-13T03:01:38;13.73;87.18
64858;SHT30;51335;51.148;6.950;2023-07-13T03:02:08;13.70;87.12
64858;SHT30;51335;51.148;6.950;2023-07-13T03:02:38;13.73;87.19
64858;SHT30;51335;51.148;6.950;2023-07-13T03:03:09;13.75;87.12
64858;SHT30;51335;51.148;6.950;2023-07-13T03:03:39;13.75;87.26
64858;SHT30;51335;51.148;6.950;2023-07-13T03:04:10;13.74;87.16
64858;SHT30;51335;51.148;6.950;2023-07-13T03:04:40;13.75;87.10
64858;SHT30;51335;51.148;6.950;2023-07-13T03:05:10;13.79;87.12
64858;SHT30;51335;51.148;6.950;2023-07-13T03:05:43;13.84;87.01
64858;SHT30;51335;51.148;6.950;2023-07-13T03:06:14;13.89;86.88
64858;SHT30;51335;51.148;6.950;2023-07-13T03:06:45;13.89;86.76
64858;SHT30;51335;51.148;6.950;2023-07-13T03:07:15;13.92;86.73
64858;SHT30;51335;51.148;6.950;2023-07-13T03:07:45;13.89;86.70
64858;SHT30;51335;51.148;6.950;2023-07-13T03:08:16;13.91;86.56
64858;SHT30;51335;51.148;6.950;2023-07-13T03:08:46;13.94;86.51
64858;SHT30;51335;51.148;6.950;2023-07-13T03:09:16;13.91;86.49
64858;SHT30;51335;51.148;6.950;2023-07-13T03:09:46;13.92;86.44
64858;SHT30;51335;51.148;6.950;2023-07-13T03:10:17;13.95;86.39
64858;SHT30;51335;51.148;6.950;2023-07-13T03:10:47;14.02;86.43
64858;SHT30;51335;51.148;6.950;2023-07-13T03:11:19;14.02;86.29
64858;SHT30;51335;51.148;6.950;2023-07-13T03:11:55;14.02;86.28
64858;SHT30;51335;51.148;6.950;2023-07-13T03:12:25;14.04;86.17
64858;SHT30;51335;51.148;6.950;2023-07-13T03:12:56;14.04;86.07
64858;SHT30;51335;51.148;6.950;2023-07-13T03:13:26;14.06;86.19
64858;SHT30;51335;51.148;6.950;2023-07-13T03:13:56;14.05;86.09
64858;SHT30;51335;51.148;6.950;2023-07-13T03:14:27;14.08;86.09
64858;SHT30;51335;51.148;6.950;2023-07-13T03:14:58;14.08;86.04
64858;SHT30;51335;51.148;6.950;2023-07-13T03:15:28;14.08;86.16
64858;SHT30;51335;51.148;6.950;2023-07-13T03:15:58;14.08;86.03
64858;SHT30;51335;51.148;6.950;2023-07-13T03:16:29;14.15;85.91
64858;SHT30;51335;51.148;6.950;2023-07-13T03:16:59;14.14;85.71
64858;SHT30;51335;51.148;6.950;2023-07-13T03:17:29;14.18;85.62
64858;SHT30;51335;51.148;6.950;2023-07-13T03:17:59;14.18;85.51
64858;SHT30;51335;51.148;6.950;2023-07-13T03:18:30;14.19;85.49
64858;SHT30;51335;51.148;6.950;2023-07-13T03:19:00;14.25;85.41
64858;SHT30;51335;51.148;6.950;2023-07-13T03:19:30;14.24;85.49
64858;SHT30;51335;51.148;6.950;2023-07-13T03:20:00;14.24;85.42
64858;SHT30;51335;51.148;6.950;2023-07-13T03:20:33;14.26;85.36